createdAt,value
2017-08-12T00:00:01.528Z,7.47
2017-08-12T00:02:30.154Z,8.37
2017-08-12T00:04:58.469Z,6.47
2017-08-12T00:07:27.505Z,6.10
2017-08-12T00:09:56.085Z,6.50
2017-08-12T00:12:24.538Z,6.10
2017-08-12T00:14:53.579Z,6.00
2017-08-12T00:17:22.164Z,6.60
2017-08-12T00:19:50.443Z,6.30
2017-08-12T00:22:18.748Z,4.93
2017-08-12T00:24:47.372Z,6.17
2017-08-12T00:27:17.219Z,4.23
2017-08-12T00:29:45.509Z,3.27
2017-08-12T00:32:14.004Z,4.90
2017-08-12T00:34:42.313Z,2.47
2017-08-12T00:37:11.509Z,2.00
2017-08-12T00:39:40.832Z,1.47
2017-08-12T00:42:09.899Z,1.73
2017-08-12T00:44:38.166Z,2.43
2017-08-12T00:47:07.926Z,2.40
2017-08-12T00:49:36.638Z,2.00
2017-08-12T00:52:06.098Z,2.30
2017-08-12T00:54:34.661Z,2.30
2017-08-12T00:57:02.960Z,2.03
2017-08-12T00:59:31.228Z,1.87
2017-08-12T01:01:59.783Z,2.13
2017-08-12T01:04:28.108Z,2.57
2017-08-12T01:06:56.397Z,1.70
2017-08-12T01:09:24.989Z,2.43
2017-08-12T01:11:53.673Z,3.03
2017-08-12T01:14:23.054Z,1.40
2017-08-12T01:16:51.643Z,1.30
2017-08-12T01:19:19.914Z,1.80
2017-08-12T01:21:48.252Z,1.20
2017-08-12T01:24:16.938Z,1.53
2017-08-12T01:26:45.230Z,1.80
2017-08-12T01:29:14.288Z,4.17
2017-08-12T01:31:43.389Z,1.80
2017-08-12T01:34:11.695Z,2.23
2017-08-12T01:36:39.961Z,2.37
2017-08-12T01:39:08.818Z,2.50
2017-08-12T01:41:38.302Z,3.23
2017-08-12T01:44:06.587Z,4.27
2017-08-12T01:46:36.596Z,3.07
2017-08-12T01:49:05.206Z,2.40
2017-08-12T01:51:34.840Z,2.10
2017-08-12T01:54:03.366Z,1.80
2017-08-12T01:56:31.806Z,1.80
2017-08-12T01:59:00.549Z,2.30
2017-08-12T02:01:30.083Z,2.90
2017-08-12T02:04:00.263Z,2.70
2017-08-12T02:06:28.402Z,3.83
2017-08-12T02:08:57.064Z,3.53
2017-08-12T02:11:25.329Z,5.83
2017-08-12T02:13:53.615Z,2.33
2017-08-12T02:16:22.388Z,2.10
2017-08-12T02:18:52.011Z,2.10
2017-08-12T02:21:21.743Z,2.63
2017-08-12T02:23:51.621Z,2.33
2017-08-12T02:26:21.988Z,3.00
2017-08-12T02:28:50.257Z,2.00
2017-08-12T02:31:19.762Z,2.60
2017-08-12T02:33:48.045Z,2.60
2017-08-12T02:36:16.688Z,1.47
2017-08-12T02:38:45.306Z,1.47
2017-08-12T02:41:13.608Z,1.40
2017-08-12T02:43:41.910Z,4.63
2017-08-12T02:46:10.582Z,1.60
2017-08-12T02:48:38.862Z,1.47
2017-08-12T02:51:07.128Z,1.50
2017-08-12T02:53:35.712Z,1.17
2017-08-12T02:56:03.982Z,1.10
2017-08-12T02:58:32.299Z,3.00
2017-08-12T03:01:00.868Z,1.10
2017-08-12T03:03:30.270Z,1.23
2017-08-12T03:05:59.723Z,1.30
2017-08-12T03:08:29.098Z,1.50
2017-08-12T03:10:57.378Z,1.90
2017-08-12T03:13:25.686Z,1.30
2017-08-12T03:15:54.249Z,1.30
2017-08-12T03:18:22.561Z,1.20
2017-08-12T03:20:51.624Z,1.37
2017-08-12T03:23:21.022Z,1.20
2017-08-12T03:25:49.318Z,1.23
2017-08-12T03:28:17.628Z,1.50
2017-08-12T03:30:46.265Z,1.57
2017-08-12T03:33:15.068Z,1.20
2017-08-12T03:35:43.349Z,1.17
2017-08-12T03:38:12.042Z,1.50
2017-08-12T03:40:40.336Z,2.80
2017-08-12T03:43:08.619Z,2.33
2017-08-12T03:45:37.247Z,1.57
2017-08-12T03:48:06.295Z,9.07
2017-08-12T03:50:34.622Z,1.30
2017-08-12T03:53:03.990Z,1.10
2017-08-12T03:55:32.278Z,1.50
2017-08-12T03:58:00.594Z,2.00
2017-08-12T04:00:29.946Z,1.70
2017-08-12T04:02:59.661Z,1.23
2017-08-12T04:05:28.726Z,1.70
2017-08-12T04:07:57.584Z,2.33
2017-08-12T04:10:27.527Z,4.73
2017-08-12T04:12:57.833Z,1.33
2017-08-12T04:15:28.131Z,3.07
2017-08-12T04:17:57.622Z,1.90
2017-08-12T04:20:27.497Z,1.53
2017-08-12T04:22:56.997Z,1.60
2017-08-12T04:25:26.485Z,1.87
2017-08-12T04:27:56.307Z,2.80
2017-08-12T04:30:25.801Z,3.33
2017-08-12T04:32:55.299Z,1.47
2017-08-12T04:35:25.150Z,1.77
2017-08-12T04:37:54.696Z,1.30
2017-08-12T04:40:24.603Z,1.40
2017-08-12T04:42:53.930Z,2.40
2017-08-12T04:45:22.215Z,2.23
2017-08-12T04:47:50.841Z,2.03
2017-08-12T04:50:19.103Z,1.23
2017-08-12T04:52:48.248Z,1.20
2017-08-12T04:55:17.753Z,1.40
2017-08-12T04:57:47.488Z,1.70
2017-08-12T05:00:17.022Z,2.00
2017-08-12T05:02:46.830Z,1.63
2017-08-12T05:05:16.674Z,1.83
2017-08-12T05:07:46.626Z,1.67
2017-08-12T05:10:16.402Z,1.40
2017-08-12T05:12:45.928Z,1.83
2017-08-12T05:15:17.575Z,1.90
2017-08-12T05:17:47.461Z,1.50
2017-08-12T05:20:17.194Z,1.67
2017-08-12T05:22:46.719Z,1.90
2017-08-12T05:25:16.929Z,1.70
2017-08-12T05:27:46.421Z,1.50
2017-08-12T05:30:15.948Z,1.67
2017-08-12T05:32:45.814Z,2.47
2017-08-12T05:35:17.100Z,1.77
2017-08-12T05:37:47.011Z,2.53
2017-08-12T05:40:15.818Z,1.87
2017-08-12T05:42:44.131Z,3.43
2017-08-12T05:45:13.598Z,1.63
2017-08-12T05:47:42.679Z,1.80
2017-08-12T05:50:10.994Z,1.30
2017-08-12T05:52:39.643Z,1.50
2017-08-12T05:55:08.696Z,1.50
2017-08-12T05:57:37.031Z,1.87
2017-08-12T06:00:06.537Z,1.40
2017-08-12T06:02:34.852Z,1.30
2017-08-12T06:05:03.183Z,2.20
2017-08-12T06:07:31.786Z,1.50
2017-08-12T06:10:00.080Z,1.50
2017-08-12T06:12:29.164Z,1.40
2017-08-12T06:14:58.255Z,1.47
2017-08-12T06:17:27.004Z,1.80
2017-08-12T06:19:55.303Z,1.30
2017-08-12T06:22:23.915Z,1.60
2017-08-12T06:24:52.246Z,1.53
2017-08-12T06:27:21.298Z,1.57
2017-08-12T06:29:49.900Z,1.77
2017-08-12T06:32:18.183Z,1.83
2017-08-12T06:34:46.462Z,1.70
2017-08-12T06:37:15.269Z,1.73
2017-08-12T06:39:43.848Z,1.57
2017-08-12T06:42:13.307Z,1.50
2017-08-12T06:44:41.922Z,1.57
2017-08-12T06:47:10.217Z,1.50
2017-08-12T06:49:38.508Z,2.13
2017-08-12T06:52:07.164Z,1.80
2017-08-12T06:54:35.434Z,2.00
2017-08-12T06:57:03.720Z,2.40
2017-08-12T06:59:33.199Z,1.73
2017-08-12T07:02:01.486Z,3.17
2017-08-12T07:04:30.735Z,2.57
2017-08-12T07:07:00.963Z,3.87
2017-08-12T07:09:29.240Z,2.80
2017-08-12T07:11:58.588Z,4.47
2017-08-12T07:14:27.875Z,4.63
2017-08-12T07:16:56.940Z,6.30
2017-08-12T07:19:25.231Z,8.37
2017-08-12T07:21:53.853Z,5.70
2017-08-12T07:24:22.931Z,7.10
2017-08-12T07:26:51.257Z,5.77
2017-08-12T07:29:20.611Z,6.80
2017-08-12T07:31:50.063Z,6.67
2017-08-12T07:34:18.339Z,7.00
2017-08-12T07:36:47.031Z,7.67
2017-08-12T07:39:16.115Z,9.23
2017-08-12T07:41:44.851Z,8.63
2017-08-12T07:44:13.450Z,6.60
2017-08-12T07:46:41.772Z,7.30
2017-08-12T07:49:10.857Z,7.43
2017-08-12T07:51:39.749Z,9.13
2017-08-12T07:54:08.020Z,7.70
2017-08-12T07:56:36.312Z,7.70
2017-08-12T07:59:04.884Z,7.83
2017-08-12T08:01:33.169Z,6.43
2017-08-12T08:04:01.470Z,7.00
2017-08-12T08:06:30.150Z,7.03
2017-08-12T08:08:59.507Z,6.90
2017-08-12T08:11:29.778Z,5.57
2017-08-12T08:13:58.927Z,8.03
2017-08-12T08:16:27.660Z,8.10
2017-08-12T08:18:56.360Z,7.77
2017-08-12T08:21:24.646Z,6.60
2017-08-12T08:23:52.976Z,7.70
2017-08-12T08:26:21.587Z,6.70
2017-08-12T08:28:49.905Z,7.23
2017-08-12T08:31:18.190Z,7.90
2017-08-12T08:33:46.883Z,7.77
2017-08-12T08:36:15.180Z,7.27
2017-08-12T08:38:43.464Z,7.27
2017-08-12T08:41:12.115Z,5.93
2017-08-12T08:43:40.403Z,7.37
2017-08-12T08:46:08.713Z,6.53
2017-08-12T08:48:37.274Z,6.17
2017-08-12T08:51:06.289Z,5.63
2017-08-12T08:53:34.560Z,5.43
2017-08-12T08:56:03.210Z,6.60
2017-08-12T08:58:31.504Z,7.43
2017-08-12T09:01:00.632Z,6.20
2017-08-12T09:03:29.226Z,8.50
2017-08-12T09:05:58.629Z,8.87
2017-08-12T09:08:26.979Z,8.77
2017-08-12T09:10:55.599Z,9.67
2017-08-12T09:13:25.786Z,9.70
2017-08-12T09:15:54.858Z,9.70
2017-08-12T09:18:25.238Z,10.37
2017-08-12T09:20:53.532Z,10.20
2017-08-12T09:23:21.836Z,10.13
2017-08-12T09:25:51.953Z,10.10
2017-08-12T09:28:20.255Z,9.53
2017-08-12T09:30:49.328Z,10.23
2017-08-12T09:33:17.902Z,11.43
2017-08-12T09:35:46.615Z,13.10
2017-08-12T09:38:15.702Z,12.33
2017-08-12T09:40:44.296Z,11.20
2017-08-12T09:43:12.679Z,12.70
2017-08-12T09:45:41.022Z,11.60
2017-08-12T09:48:09.627Z,13.97
2017-08-12T09:50:37.935Z,13.73
2017-08-12T09:53:06.217Z,13.37
2017-08-12T09:55:35.573Z,13.60
2017-08-12T09:58:03.918Z,14.40
2017-08-12T10:00:33.105Z,22.73
2017-08-12T10:03:01.919Z,15.30
2017-08-12T10:05:30.743Z,15.07
2017-08-12T10:07:59.034Z,17.00
2017-08-12T10:10:27.707Z,15.17
2017-08-12T10:12:55.994Z,12.77
2017-08-12T10:15:24.336Z,15.73
2017-08-12T10:17:53.699Z,15.63
2017-08-12T10:20:23.136Z,12.00
2017-08-12T10:22:51.440Z,13.20
2017-08-12T10:25:20.760Z,11.63
2017-08-12T10:27:49.060Z,17.33
2017-08-12T10:30:17.395Z,12.40
2017-08-12T10:32:45.967Z,11.20
2017-08-12T10:35:14.283Z,12.63
2017-08-12T10:37:42.988Z,14.13
2017-08-12T10:40:12.272Z,12.17
2017-08-12T10:42:41.335Z,12.47
2017-08-12T10:45:10.052Z,11.73
2017-08-12T10:47:38.720Z,11.83
2017-08-12T10:50:07.120Z,10.90
2017-08-12T10:52:36.334Z,13.17
2017-08-12T10:55:04.934Z,11.37
2017-08-12T10:57:34.023Z,12.03
2017-08-12T11:00:03.077Z,11.47
2017-08-12T11:02:32.805Z,13.57
2017-08-12T11:05:01.099Z,11.20
2017-08-12T11:07:29.615Z,11.60
2017-08-12T11:09:59.000Z,13.20
2017-08-12T11:12:27.275Z,10.80
2017-08-12T11:14:57.298Z,11.73
2017-08-12T11:17:25.847Z,10.23
2017-08-12T11:19:55.675Z,11.10
2017-08-12T11:22:23.983Z,10.60
2017-08-12T11:24:52.588Z,9.70
2017-08-12T11:27:20.870Z,9.47
2017-08-12T11:29:49.205Z,11.07
2017-08-12T11:32:17.826Z,12.00
2017-08-12T11:34:46.216Z,9.67
2017-08-12T11:37:14.496Z,10.63
2017-08-12T11:39:44.242Z,9.80
2017-08-12T11:42:13.652Z,10.70
2017-08-12T11:44:42.740Z,11.53
2017-08-12T11:47:12.132Z,10.43
2017-08-12T11:49:40.412Z,13.37
2017-08-12T11:52:08.716Z,10.87
2017-08-12T11:54:37.361Z,9.17
2017-08-12T11:57:06.024Z,10.00
2017-08-12T11:59:34.283Z,9.87
2017-08-12T12:02:04.284Z,9.40
2017-08-12T12:04:34.135Z,9.97
2017-08-12T12:07:03.643Z,9.80
2017-08-12T12:09:33.441Z,8.47
2017-08-12T12:12:02.985Z,8.30
2017-08-12T12:14:32.527Z,13.27
2017-08-12T12:17:03.133Z,8.23
2017-08-12T12:19:33.084Z,8.47
2017-08-12T12:22:02.604Z,8.97
2017-08-12T12:24:32.415Z,10.33
2017-08-12T12:27:01.955Z,11.40
2017-08-12T12:29:31.503Z,7.93
2017-08-12T12:32:01.900Z,10.63
2017-08-12T12:34:31.454Z,8.33
2017-08-12T12:37:00.959Z,10.03
2017-08-12T12:39:29.491Z,7.70
2017-08-12T12:41:57.781Z,12.63
2017-08-12T12:44:26.116Z,6.60
2017-08-12T12:46:54.716Z,6.70
2017-08-12T12:49:23.009Z,8.43
2017-08-12T12:51:51.277Z,8.27
2017-08-12T12:54:19.859Z,8.13
2017-08-12T12:56:48.680Z,7.60
2017-08-12T12:59:17.712Z,7.37
2017-08-12T13:01:46.296Z,10.53
2017-08-12T13:04:14.606Z,8.33
2017-08-12T13:06:43.664Z,10.63
2017-08-12T13:09:12.316Z,9.17
2017-08-12T13:11:40.603Z,8.03
2017-08-12T13:14:08.893Z,10.60
2017-08-12T13:16:37.603Z,7.53
2017-08-12T13:19:06.638Z,8.80
2017-08-12T13:21:34.919Z,7.70
2017-08-12T13:24:03.545Z,6.87
2017-08-12T13:26:33.707Z,7.80
2017-08-12T13:29:01.994Z,9.77
2017-08-12T13:31:30.656Z,8.83
2017-08-12T13:33:59.024Z,11.77
2017-08-12T13:36:31.654Z,7.50
2017-08-12T13:38:59.924Z,8.33
2017-08-12T13:41:28.208Z,9.57
2017-08-12T13:43:56.849Z,10.30
2017-08-12T13:46:25.162Z,11.10
2017-08-12T13:48:54.352Z,10.30
2017-08-12T13:51:22.950Z,17.60
2017-08-12T13:53:51.236Z,10.93
2017-08-12T13:56:19.570Z,13.90
2017-08-12T13:58:49.820Z,9.53
2017-08-12T14:01:18.506Z,14.00
2017-08-12T14:03:46.884Z,8.90
2017-08-12T14:06:15.692Z,7.60
2017-08-12T14:08:44.511Z,6.77
2017-08-12T14:11:12.955Z,8.53
2017-08-12T14:13:41.605Z,14.13
2017-08-12T14:16:09.891Z,6.07
2017-08-12T14:18:38.202Z,7.80
2017-08-12T14:21:07.533Z,7.33
2017-08-12T14:23:36.024Z,9.57
2017-08-12T14:26:05.115Z,15.20
2017-08-12T14:28:33.662Z,9.87
2017-08-12T14:31:04.217Z,10.10
2017-08-12T14:33:32.394Z,9.67
2017-08-12T14:36:02.125Z,6.60
2017-08-12T14:38:31.325Z,12.33
2017-08-12T14:40:59.617Z,11.07
2017-08-12T14:43:28.292Z,9.97
2017-08-12T14:45:57.450Z,10.23
2017-08-12T14:48:26.445Z,11.33
2017-08-12T14:50:55.486Z,8.83
2017-08-12T14:53:24.227Z,7.90
2017-08-12T14:55:52.509Z,9.63
2017-08-12T14:58:21.844Z,6.73
2017-08-12T15:00:50.149Z,7.40
2017-08-12T15:03:18.415Z,6.47
2017-08-12T15:05:47.718Z,5.83
2017-08-12T15:08:16.000Z,6.77
2017-08-12T15:10:44.470Z,6.50
2017-08-12T15:13:14.639Z,6.50
2017-08-12T15:15:43.845Z,5.90
2017-08-12T15:18:12.964Z,6.97
2017-08-12T15:20:42.334Z,6.20
2017-08-12T15:23:10.615Z,5.57
2017-08-12T15:25:38.925Z,6.60
2017-08-12T15:28:07.653Z,5.13
2017-08-12T15:30:36.590Z,5.20
2017-08-12T15:33:04.885Z,6.17
2017-08-12T15:35:33.511Z,5.70
2017-08-12T15:38:01.820Z,5.50
2017-08-12T15:40:30.137Z,6.63
2017-08-12T15:42:58.725Z,6.23
2017-08-12T15:45:27.305Z,9.27
2017-08-12T15:47:55.691Z,6.00
2017-08-12T15:50:25.156Z,6.87
2017-08-12T15:52:53.444Z,5.50
2017-08-12T15:55:21.737Z,9.90
2017-08-12T15:57:50.353Z,7.20
2017-08-12T16:00:19.321Z,11.27
2017-08-12T16:02:47.689Z,7.07
2017-08-12T16:05:16.298Z,6.50
2017-08-12T16:07:44.597Z,6.60
2017-08-12T16:10:12.874Z,8.33
2017-08-12T16:12:41.447Z,6.67
2017-08-12T16:15:09.748Z,6.73
2017-08-12T16:17:38.114Z,7.73
2017-08-12T16:20:06.660Z,6.87
2017-08-12T16:22:34.981Z,6.67
2017-08-12T16:25:03.279Z,5.27
2017-08-12T16:27:31.834Z,6.23
2017-08-12T16:30:01.060Z,5.90
2017-08-12T16:32:29.355Z,5.30
2017-08-12T16:34:57.971Z,5.43
2017-08-12T16:37:27.041Z,5.00
2017-08-12T16:39:55.312Z,5.40
2017-08-12T16:42:23.928Z,5.90
2017-08-12T16:44:52.310Z,5.80
2017-08-12T16:47:20.697Z,5.83
2017-08-12T16:49:49.395Z,5.73
2017-08-12T16:52:18.440Z,9.90
2017-08-12T16:54:47.460Z,5.77
2017-08-12T16:57:16.872Z,5.37
2017-08-12T16:59:45.178Z,6.40
2017-08-12T17:02:13.457Z,5.43
2017-08-12T17:04:42.834Z,8.57
2017-08-12T17:07:11.166Z,9.03
2017-08-12T17:09:40.222Z,7.87
2017-08-12T17:12:08.820Z,6.83
2017-08-12T17:14:37.111Z,5.47
2017-08-12T17:17:06.770Z,5.13
2017-08-12T17:19:36.008Z,5.43
2017-08-12T17:22:04.598Z,6.13
2017-08-12T17:24:32.881Z,5.63
2017-08-12T17:27:01.470Z,6.70
2017-08-12T17:29:29.767Z,6.23
2017-08-12T17:31:58.033Z,6.43
2017-08-12T17:34:26.718Z,5.20
2017-08-12T17:36:55.002Z,4.87
2017-08-12T17:39:23.297Z,6.23
2017-08-12T17:41:51.974Z,5.03
2017-08-12T17:44:20.930Z,5.70
2017-08-12T17:46:49.196Z,5.43
2017-08-12T17:49:17.763Z,5.33
2017-08-12T17:51:46.834Z,5.07
2017-08-12T17:54:15.100Z,5.80
2017-08-12T17:56:43.717Z,5.43
2017-08-12T17:59:12.709Z,5.40
2017-08-12T18:01:41.028Z,6.83
2017-08-12T18:04:10.400Z,7.27
2017-08-12T18:06:39.503Z,6.40
2017-08-12T18:09:07.824Z,9.57
2017-08-12T18:11:37.311Z,7.40
2017-08-12T18:14:06.372Z,7.73
2017-08-12T18:16:34.673Z,6.00
2017-08-12T18:19:03.263Z,6.67
2017-08-12T18:21:31.923Z,7.23
2017-08-12T18:24:00.186Z,6.73
2017-08-12T18:26:28.805Z,5.90
2017-08-12T18:28:58.757Z,6.33
2017-08-12T18:31:27.947Z,5.80
2017-08-12T18:33:57.296Z,5.83
2017-08-12T18:36:28.871Z,6.50
2017-08-12T18:38:57.141Z,5.83
2017-08-12T18:41:25.737Z,8.13
2017-08-12T18:43:54.048Z,5.37
2017-08-12T18:46:22.321Z,6.10
2017-08-12T18:48:50.930Z,5.27
2017-08-12T18:51:19.202Z,5.50
2017-08-12T18:53:48.434Z,8.30
2017-08-12T18:56:17.592Z,5.40
2017-08-12T18:58:45.865Z,5.60
2017-08-12T19:01:14.157Z,7.87
2017-08-12T19:03:43.924Z,6.27
2017-08-12T19:06:12.672Z,6.70
2017-08-12T19:08:41.060Z,6.77
2017-08-12T19:11:09.703Z,7.67
2017-08-12T19:13:38.331Z,8.33
2017-08-12T19:16:07.759Z,10.43
2017-08-12T19:18:36.446Z,8.43
2017-08-12T19:21:04.769Z,8.70
2017-08-12T19:23:33.051Z,6.80
2017-08-12T19:26:02.418Z,6.23
2017-08-12T19:28:31.814Z,6.67
2017-08-12T19:31:01.474Z,5.80
2017-08-12T19:33:30.045Z,6.20
2017-08-12T19:35:59.216Z,6.70
2017-08-12T19:38:27.496Z,6.70
2017-08-12T19:40:56.078Z,6.40
2017-08-12T19:43:24.380Z,5.70
2017-08-12T19:45:53.073Z,7.20
2017-08-12T19:48:21.995Z,5.63
2017-08-12T19:50:50.308Z,10.20
2017-08-12T19:53:18.578Z,10.43
2017-08-12T19:55:47.164Z,13.87
2017-08-12T19:58:16.099Z,12.07
2017-08-12T20:00:44.417Z,8.10
2017-08-12T20:03:14.406Z,11.30
2017-08-12T20:05:42.696Z,7.03
2017-08-12T20:08:11.532Z,7.50
2017-08-12T20:10:40.156Z,8.53
2017-08-12T20:13:08.444Z,7.40
2017-08-12T20:15:36.738Z,7.93
2017-08-12T20:18:07.881Z,7.93
2017-08-12T20:20:36.945Z,9.67
2017-08-12T20:23:05.270Z,9.10
2017-08-12T20:25:35.716Z,7.53
2017-08-12T20:28:05.977Z,7.53
2017-08-12T20:30:34.915Z,7.50
2017-08-12T20:33:04.856Z,8.90
2017-08-12T20:35:35.940Z,5.27
2017-08-12T20:38:05.815Z,6.13
2017-08-12T20:40:35.016Z,6.80
2017-08-12T20:43:07.187Z,6.20
2017-08-12T20:45:35.347Z,6.40
2017-08-12T20:48:03.671Z,7.00
2017-08-12T20:50:33.648Z,6.10
2017-08-12T20:53:03.124Z,7.43
2017-08-12T20:55:32.636Z,7.70
2017-08-12T20:58:02.480Z,7.20
2017-08-12T21:00:32.137Z,7.07
2017-08-12T21:03:01.674Z,7.17
2017-08-12T21:05:31.835Z,5.70
2017-08-12T21:08:01.703Z,6.27
2017-08-12T21:10:31.604Z,6.53
2017-08-12T21:13:01.209Z,7.10
2017-08-12T21:15:30.764Z,5.50
2017-08-12T21:17:59.286Z,6.20
2017-08-12T21:20:28.393Z,5.03
2017-08-12T21:22:58.037Z,5.33
2017-08-12T21:25:28.280Z,4.97
2017-08-12T21:27:57.826Z,5.90
2017-08-12T21:30:27.658Z,5.83
2017-08-12T21:32:57.177Z,4.70
2017-08-12T21:35:26.761Z,6.17
2017-08-12T21:37:57.197Z,6.40
2017-08-12T21:40:26.730Z,5.47
2017-08-12T21:42:56.695Z,8.37
2017-08-12T21:45:26.227Z,7.63
2017-08-12T21:47:55.781Z,5.20
2017-08-12T21:50:25.604Z,5.47
2017-08-12T21:52:55.234Z,5.47
2017-08-12T21:55:24.782Z,6.33
2017-08-12T21:57:54.553Z,9.40
2017-08-12T22:00:24.062Z,5.57
2017-08-12T22:02:53.579Z,5.50
2017-08-12T22:05:22.069Z,5.70
2017-08-12T22:07:50.354Z,5.00
2017-08-12T22:10:18.690Z,5.20
2017-08-12T22:12:47.307Z,4.70
2017-08-12T22:15:15.630Z,5.97
2017-08-12T22:17:44.715Z,5.73
2017-08-12T22:20:13.365Z,5.13
2017-08-12T22:22:41.674Z,4.90
2017-08-12T22:25:09.961Z,5.60
2017-08-12T22:27:40.255Z,6.00
2017-08-12T22:30:09.772Z,6.30
2017-08-12T22:32:38.821Z,6.63
2017-08-12T22:35:07.427Z,5.93
2017-08-12T22:37:36.660Z,8.07
2017-08-12T22:40:04.968Z,6.97
2017-08-12T22:42:33.654Z,6.47
2017-08-12T22:45:02.040Z,6.40
2017-08-12T22:47:30.819Z,7.00
2017-08-12T22:49:59.486Z,5.83
2017-08-12T22:52:29.547Z,10.60
2017-08-12T22:54:59.076Z,7.13
2017-08-12T22:57:27.546Z,6.90
2017-08-12T22:59:57.185Z,6.30
2017-08-12T23:02:26.720Z,5.00
2017-08-12T23:04:56.539Z,5.77
2017-08-12T23:07:26.687Z,6.30
2017-08-12T23:09:56.573Z,5.57
2017-08-12T23:12:26.113Z,5.50
2017-08-12T23:14:56.344Z,7.80
2017-08-12T23:17:26.023Z,5.67
2017-08-12T23:19:54.324Z,5.47
2017-08-12T23:22:22.602Z,4.87
2017-08-12T23:24:52.479Z,5.07
2017-08-12T23:27:20.767Z,5.03
2017-08-12T23:29:49.061Z,5.63
2017-08-12T23:32:17.625Z,6.20
2017-08-12T23:34:45.936Z,7.30
2017-08-12T23:37:14.201Z,4.13
2017-08-12T23:39:42.892Z,6.73
2017-08-12T23:42:11.710Z,5.00
2017-08-12T23:44:40.773Z,4.53
2017-08-12T23:47:09.388Z,5.17
2017-08-12T23:49:37.669Z,4.43
2017-08-12T23:52:06.741Z,4.30
2017-08-12T23:54:35.332Z,4.60
2017-08-12T23:57:03.601Z,4.70
2017-08-12T23:59:32.107Z,5.17
